Time;durP1;ratioP1;P1;durP2;ratioP2;P2;SDS_P1;SDS_P2;PMS_P1;PMS_P2;Temp;Humidity;BMP_temperature;BMP_pressure;BME280_temperature;BME280_humidity;BME280_pressure;Samples;Min_cycle;Max_cycle;Signal;HPM_P1;HPM_P2
2022/03/01 00:01:26;;;;;;;6.97;6.28;;;10.40;99.90;;;;;;4958278;28;20043;-63
2022/03/01 00:03:53;;;;;;;10.27;7.10;;;10.40;99.90;;;;;;4982490;28;20499;-62
2022/03/01 00:06:20;;;;;;;8.57;7.30;;;10.40;99.90;;;;;;4952910;29;20055;-62
2022/03/01 00:08:47;;;;;;;8.32;7.47;;;10.40;99.90;;;;;;4959877;28;20058;-62
2022/03/01 00:11:14;;;;;;;7.80;6.78;;;10.40;99.90;;;;;;4937770;29;20039;-62
2022/03/01 00:13:42;;;;;;;8.27;6.72;;;10.50;99.90;;;;;;4935557;28;20047;-62
2022/03/01 00:16:09;;;;;;;11.20;7.60;;;10.50;99.90;;;;;;4953369;28;20051;-61
2022/03/01 00:18:36;;;;;;;9.75;7.18;;;10.50;99.90;;;;;;4952896;28;20066;-64
2022/03/01 00:21:07;;;;;;;9.40;7.40;;;10.50;99.90;;;;;;4955388;28;20186;-62
2022/03/01 00:23:34;;;;;;;11.13;7.00;;;10.50;99.90;;;;;;4968842;28;20126;-62
2022/03/01 00:26:01;;;;;;;8.27;6.45;;;10.50;99.90;;;;;;4965945;28;20118;-62
2022/03/01 00:28:28;;;;;;;9.65;7.25;;;10.50;99.90;;;;;;4967715;28;20166;-62
2022/03/01 00:30:55;;;;;;;10.07;8.13;;;10.50;99.90;;;;;;4983087;28;20491;-63
2022/03/01 00:33:22;;;;;;;10.35;7.45;;;10.50;99.90;;;;;;4956043;28;20057;-61
2022/03/01 00:35:49;;;;;;;8.73;6.82;;;10.50;99.90;;;;;;4962379;28;20040;-62
2022/03/01 00:38:16;;;;;;;7.45;6.70;;;10.50;99.90;;;;;;4985160;28;20137;-63
2022/03/01 00:40:43;;;;;;;10.18;7.15;;;10.50;99.90;;;;;;4956016;28;20065;-61
2022/03/01 00:43:10;;;;;;;7.95;7.15;;;10.50;99.90;;;;;;4956686;28;20479;-62
2022/03/01 00:45:40;;;;;;;;;;;10.50;99.90;;;;;;4961024;28;20050;-62
2022/03/01 00:48:07;;;;;;;7.38;6.32;;;10.50;99.90;;;;;;4970721;28;19928;-61
2022/03/01 00:50:34;;;;;;;7.50;6.70;;;10.50;99.90;;;;;;4973416;28;20039;-66
2022/03/01 00:53:04;;;;;;;11.55;7.05;;;10.50;99.90;;;;;;4961107;28;20561;-62
2022/03/01 00:55:33;;;;;;;7.70;6.10;;;10.50;99.90;;;;;;4968110;28;20043;-62
2022/03/01 00:58:01;;;;;;;9.32;6.93;;;10.50;99.90;;;;;;4958612;28;20050;-63
2022/03/01 01:00:29;;;;;;;8.57;7.40;;;10.50;99.90;;;;;;4965326;28;20054;-63
2022/03/01 01:02:56;;;;;;;8.82;6.70;;;10.50;99.90;;;;;;4969535;28;20062;-63
2022/03/01 01:05:24;;;;;;;8.10;7.30;;;10.50;99.90;;;;;;4936214;29;20040;-63
2022/03/01 01:07:51;;;;;;;8.80;7.82;;;10.50;99.90;;;;;;4985325;28;20047;-62
2022/03/01 01:10:18;;;;;;;9.52;6.30;;;10.50;99.90;;;;;;4956432;28;20138;-62
2022/03/01 01:12:45;;;;;;;8.30;7.18;;;10.50;99.90;;;;;;4958267;28;20047;-68
2022/03/01 01:15:15;;;;;;;7.55;6.22;;;10.50;99.90;;;;;;4959526;28;20078;-62
2022/03/01 01:17:42;;;;;;;8.32;6.07;;;10.50;99.90;;;;;;4956637;28;20051;-62
2022/03/01 01:20:12;;;;;;;9.93;7.57;;;10.50;99.90;;;;;;4956787;28;20110;-62
2022/03/01 01:22:42;;;;;;;8.18;7.35;;;10.50;99.90;;;;;;4972223;28;20058;-61
2022/03/01 01:25:10;;;;;;;8.20;7.40;;;10.40;99.90;;;;;;4956718;28;20055;-61
2022/03/01 01:27:38;;;;;;;10.30;8.27;;;10.50;99.90;;;;;;4955407;28;20159;-62
2022/03/01 01:30:06;;;;;;;10.15;7.82;;;10.40;99.90;;;;;;4954357;28;20044;-62
2022/03/01 01:32:33;;;;;;;8.88;6.72;;;10.50;99.90;;;;;;4941495;29;20491;-62
2022/03/01 01:35:00;;;;;;;7.03;6.03;;;10.40;99.90;;;;;;4970407;28;20406;-62
2022/03/01 01:37:27;;;;;;;8.90;6.18;;;10.40;99.90;;;;;;4955805;28;20495;-62
2022/03/01 01:39:54;;;;;;;6.80;5.80;;;10.40;99.90;;;;;;4969463;28;20109;-62
2022/03/01 01:42:21;;;;;;;6.45;5.72;;;10.40;99.90;;;;;;4951730;28;20053;-63
2022/03/01 01:44:48;;;;;;;8.18;5.88;;;10.40;99.90;;;;;;4957548;28;20055;-62
2022/03/01 01:47:35;;;;;;;8.00;6.28;;;10.40;99.90;;;;;;4955374;28;20051;-70
2022/03/01 01:50:03;;;;;;;7.88;6.30;;;10.40;99.90;;;;;;4930010;28;20049;-62
2022/03/01 01:52:30;;;;;;;7.25;6.53;;;10.40;99.90;;;;;;4954309;28;20062;-62
2022/03/01 01:54:57;;;;;;;9.32;6.03;;;10.40;99.90;;;;;;4956896;28;20127;-62
2022/03/01 01:57:25;;;;;;;7.43;6.68;;;10.40;99.90;;;;;;4959262;28;20054;-62
2022/03/01 01:59:52;;;;;;;7.00;6.03;;;10.40;99.90;;;;;;4988550;28;20409;-62
2022/03/01 02:02:20;;;;;;;6.93;6.05;;;10.40;99.90;;;;;;4930617;29;20065;-62
2022/03/01 02:04:47;;;;;;;7.10;6.15;;;10.40;99.90;;;;;;4958474;28;20407;-62
2022/03/01 02:07:15;;;;;;;9.05;6.82;;;10.40;99.90;;;;;;4949981;28;20043;-62
2022/03/01 02:09:42;;;;;;;8.20;5.78;;;10.50;99.90;;;;;;4969407;28;20046;-62
2022/03/01 02:12:09;;;;;;;7.18;6.45;;;10.50;99.90;;;;;;4961601;28;20479;-62
2022/03/01 02:14:37;;;;;;;9.18;7.28;;;10.50;99.90;;;;;;4969526;28;20078;-64
2022/03/01 02:17:06;;;;;;;8.23;6.18;;;10.50;99.90;;;;;;4985148;28;20122;-62
2022/03/01 02:19:33;;;;;;;8.05;6.47;;;10.50;99.90;;;;;;4956209;28;20062;-62
2022/03/01 02:22:00;;;;;;;8.77;7.03;;;10.50;99.90;;;;;;4967861;28;20049;-63
2022/03/01 02:24:29;;;;;;;8.53;7.33;;;10.50;99.90;;;;;;4969361;28;20047;-64
2022/03/01 02:26:57;;;;;;;7.72;6.28;;;10.50;99.90;;;;;;4955381;28;20481;-62
2022/03/01 02:29:24;;;;;;;8.43;7.25;;;10.50;99.90;;;;;;4968877;28;20051;-62
2022/03/01 02:31:52;;;;;;;7.75;6.50;;;10.50;99.90;;;;;;4955268;28;20047;-62
2022/03/01 02:34:19;;;;;;;9.15;7.07;;;10.40;99.90;;;;;;4986336;28;20054;-62
2022/03/01 02:36:46;;;;;;;6.75;6.05;;;10.40;99.90;;;;;;4948108;28;20054;-61
2022/03/01 02:39:13;;;;;;;8.50;6.25;;;10.40;99.90;;;;;;4965817;28;20054;-61
2022/03/01 02:41:42;;;;;;;8.02;6.72;;;10.40;99.90;;;;;;4961227;28;20063;-62
2022/03/01 02:44:09;;;;;;;9.02;7.63;;;10.40;99.90;;;;;;4963941;28;20057;-62
2022/03/01 02:46:37;;;;;;;7.78;6.97;;;10.40;99.90;;;;;;4936326;29;20051;-62
2022/03/01 02:49:05;;;;;;;7.15;6.15;;;10.40;99.90;;;;;;4986678;28;20388;-61
2022/03/01 02:51:33;;;;;;;6.72;5.68;;;10.40;99.90;;;;;;4967162;28;20043;-62
2022/03/01 02:54:00;;;;;;;9.43;7.82;;;10.40;99.90;;;;;;4964916;28;20499;-62
2022/03/01 02:56:27;;;;;;;8.07;6.70;;;10.40;99.90;;;;;;4952322;28;20043;-62
2022/03/01 02:58:55;;;;;;;9.18;6.55;;;10.40;99.90;;;;;;4964933;28;20042;-62
2022/03/01 03:01:22;;;;;;;8.10;6.90;;;10.40;99.90;;;;;;4961528;28;20487;-62
2022/03/01 03:03:50;;;;;;;7.13;6.22;;;10.40;99.90;;;;;;4954828;28;20062;-62
2022/03/01 03:06:17;;;;;;;9.43;7.07;;;10.40;99.90;;;;;;4964527;28;20054;-62
2022/03/01 03:08:44;;;;;;;9.10;6.50;;;10.40;99.90;;;;;;4954291;28;20058;-61
2022/03/01 03:11:11;;;;;;;9.13;6.07;;;10.40;99.90;;;;;;4953095;28;20050;-62
2022/03/01 03:13:38;;;;;;;7.88;6.30;;;10.30;99.90;;;;;;4953139;28;20051;-61
2022/03/01 03:16:07;;;;;;;7.88;5.88;;;10.40;99.90;;;;;;4954566;28;20406;-61
2022/03/01 03:18:35;;;;;;;8.60;6.00;;;10.40;99.90;;;;;;4954425;28;20055;-61
2022/03/01 03:21:02;;;;;;;7.55;5.45;;;10.40;99.90;;;;;;4965835;28;20297;-61
2022/03/01 03:23:29;;;;;;;7.15;6.43;;;10.40;99.90;;;;;;4954187;28;20047;-67
2022/03/01 03:25:56;;;;;;;8.52;6.90;;;10.40;99.90;;;;;;4953867;28;20043;-62
2022/03/01 03:28:23;;;;;;;7.50;6.05;;;10.40;99.90;;;;;;4950917;28;20043;-62
2022/03/01 03:30:49;;;;;;;7.53;6.13;;;10.30;99.90;;;;;;4956927;28;20053;-62
2022/03/01 03:33:17;;;;;;;7.45;6.10;;;10.30;99.90;;;;;;4954332;28;20051;-62
2022/03/01 03:35:44;;;;;;;8.10;6.72;;;10.30;99.90;;;;;;4954984;28;20488;-62
2022/03/01 03:38:10;;;;;;;6.68;5.60;;;10.30;99.90;;;;;;4954145;28;20487;-63
2022/03/01 03:40:37;;;;;;;6.70;5.72;;;10.30;99.90;;;;;;4963443;28;20055;-62
2022/03/01 03:43:05;;;;;;;7.55;6.55;;;10.30;99.90;;;;;;4968777;28;20049;-62
2022/03/01 03:45:32;;;;;;;8.43;6.47;;;10.30;99.90;;;;;;4967931;28;20093;-61
2022/03/01 03:47:59;;;;;;;6.97;6.20;;;10.30;99.90;;;;;;4951166;28;20053;-61
2022/03/01 03:50:26;;;;;;;7.22;6.28;;;10.30;99.90;;;;;;4972155;28;20400;-70
2022/03/01 03:52:53;;;;;;;7.95;6.43;;;10.30;99.90;;;;;;4968914;28;20125;-61
2022/03/01 03:55:20;;;;;;;8.95;6.75;;;10.30;99.90;;;;;;4968113;28;20179;-62
2022/03/01 03:57:47;;;;;;;8.48;7.43;;;10.30;99.90;;;;;;4955686;28;20043;-62
2022/03/01 04:00:15;;;;;;;8.93;7.80;;;10.30;99.90;;;;;;4957521;28;20126;-62
2022/03/01 04:02:43;;;;;;;9.80;7.47;;;10.30;99.90;;;;;;4982996;28;20432;-63
2022/03/01 04:05:12;;;;;;;10.50;8.57;;;10.30;99.90;;;;;;4952273;28;20047;-62
2022/03/01 04:07:40;;;;;;;9.82;7.32;;;10.20;99.90;;;;;;4952939;28;20138;-62
2022/03/01 04:10:08;;;;;;;8.85;7.95;;;10.20;99.90;;;;;;4968296;28;20129;-62
2022/03/01 04:12:35;;;;;;;10.65;8.40;;;10.20;99.90;;;;;;4970672;28;20062;-61
2022/03/01 04:15:03;;;;;;;9.38;8.38;;;10.30;99.90;;;;;;4969491;28;20138;-61
2022/03/01 04:17:30;;;;;;;8.20;6.63;;;10.30;99.90;;;;;;4956382;28;20098;-62
2022/03/01 04:19:57;;;;;;;8.98;7.82;;;10.30;99.90;;;;;;4967063;28;20501;-62
2022/03/01 04:22:24;;;;;;;9.45;7.20;;;10.20;99.90;;;;;;4965708;28;20466;-62
2022/03/01 04:24:51;;;;;;;10.90;8.15;;;10.20;99.90;;;;;;4970595;28;20406;-62
2022/03/01 04:27:19;;;;;;;12.73;9.43;;;10.20;99.90;;;;;;4985967;28;20098;-62
2022/03/01 04:29:45;;;;;;;12.68;9.85;;;10.20;99.90;;;;;;4985541;28;20247;-69
2022/03/01 04:32:12;;;;;;;13.15;9.43;;;10.20;99.90;;;;;;4957138;28;20381;-62
2022/03/01 04:34:42;;;;;;;16.00;10.63;;;10.30;99.90;;;;;;4958228;28;20487;-62
2022/03/01 04:37:09;;;;;;;;;;;10.30;99.90;;;;;;4987751;28;20054;-63
2022/03/01 04:39:39;;;;;;;15.63;10.48;;;10.30;99.90;;;;;;4965183;28;19932;-63
2022/03/01 04:42:07;;;;;;;13.52;10.65;;;10.30;99.90;;;;;;4963225;28;20065;-64
2022/03/01 04:44:34;;;;;;;15.48;11.45;;;10.30;99.90;;;;;;4971580;28;20043;-62
2022/03/01 04:47:02;;;;;;;16.23;11.05;;;10.30;99.90;;;;;;4974409;28;20053;-65
2022/03/01 04:49:29;;;;;;;14.75;10.30;;;10.30;99.90;;;;;;4972640;28;20057;-62
2022/03/01 04:51:56;;;;;;;13.75;10.80;;;10.30;99.90;;;;;;4971186;28;20061;-62
2022/03/01 04:54:23;;;;;;;14.25;11.63;;;10.30;99.90;;;;;;4958090;28;20086;-62
2022/03/01 04:56:50;;;;;;;13.70;11.25;;;10.30;99.90;;;;;;4953405;28;20054;-62
2022/03/01 04:59:17;;;;;;;14.02;9.52;;;10.30;99.90;;;;;;4954195;29;20051;-62
2022/03/01 05:01:44;;;;;;;15.25;11.70;;;10.30;99.90;;;;;;4960577;28;20051;-62
2022/03/01 05:04:11;;;;;;;16.02;11.23;;;10.30;99.90;;;;;;4970667;28;20122;-62
2022/03/01 05:06:39;;;;;;;14.48;11.75;;;10.30;99.90;;;;;;4967602;28;20369;-62
2022/03/01 05:09:06;;;;;;;12.75;9.50;;;10.30;99.90;;;;;;4956151;28;20047;-62
2022/03/01 05:11:33;;;;;;;13.60;10.75;;;10.30;99.90;;;;;;4972584;28;20095;-62
2022/03/01 05:14:00;;;;;;;16.42;11.07;;;10.30;99.90;;;;;;4973628;28;20351;-61
2022/03/01 05:16:27;;;;;;;15.20;11.00;;;10.30;99.90;;;;;;4960593;28;20043;-62
2022/03/01 05:18:54;;;;;;;12.43;9.50;;;10.30;99.90;;;;;;4954737;28;20055;-62
2022/03/01 05:21:21;;;;;;;10.70;7.25;;;10.30;99.90;;;;;;4970952;28;20042;-62
2022/03/01 05:23:48;;;;;;;8.43;6.20;;;10.30;99.90;;;;;;4964179;28;20066;-62
2022/03/01 05:26:17;;;;;;;5.95;5.32;;;10.20;99.90;;;;;;4960980;28;20049;-62
2022/03/01 05:28:45;;;;;;;6.60;5.90;;;10.00;99.90;;;;;;4955895;28;20051;-67
2022/03/01 05:31:12;;;;;;;7.65;6.15;;;9.80;99.90;;;;;;4964953;28;20043;-63
2022/03/01 05:33:39;;;;;;;8.20;7.28;;;9.70;99.90;;;;;;4964752;28;20063;-62
2022/03/01 05:36:06;;;;;;;7.80;7.00;;;9.60;99.90;;;;;;4957631;28;20376;-62
2022/03/01 05:38:33;;;;;;;10.15;6.82;;;9.60;99.90;;;;;;4965504;28;20047;-62
2022/03/01 05:41:00;;;;;;;8.52;7.68;;;9.50;99.90;;;;;;4968486;28;20521;-61
2022/03/01 05:43:28;;;;;;;8.73;7.82;;;9.50;99.90;;;;;;4957765;28;20047;-62
2022/03/01 05:45:55;;;;;;;9.85;8.93;;;9.40;99.90;;;;;;4955803;28;20454;-62
2022/03/01 05:48:22;;;;;;;8.60;7.72;;;9.40;99.90;;;;;;4971871;28;20487;-61
2022/03/01 05:50:49;;;;;;;8.77;7.88;;;9.30;99.90;;;;;;4973707;28;20558;-62
2022/03/01 05:53:16;;;;;;;9.00;8.10;;;9.20;99.90;;;;;;4969414;28;20050;-61
2022/03/01 05:55:43;;;;;;;30.60;11.05;;;9.20;99.90;;;;;;4965970;28;20051;-63
2022/03/01 05:58:10;;;;;;;11.55;8.32;;;9.20;99.90;;;;;;4968752;28;20062;-64
2022/03/01 06:00:37;;;;;;;8.63;7.82;;;9.20;99.90;;;;;;4942469;28;20047;-62
2022/03/01 06:03:03;;;;;;;10.43;8.82;;;9.20;99.90;;;;;;4961423;28;20130;-62
2022/03/01 06:05:31;;;;;;;145.80;20.77;;;9.10;99.90;;;;;;4965329;28;20047;-63
2022/03/01 06:07:58;;;;;;;29.00;11.13;;;9.10;99.90;;;;;;4964034;28;20483;-62
2022/03/01 06:10:25;;;;;;;77.43;14.63;;;9.20;99.90;;;;;;4961265;28;20048;-68
2022/03/01 06:12:52;;;;;;;9.10;8.18;;;9.20;99.90;;;;;;4968309;28;20047;-62
2022/03/01 06:15:19;;;;;;;11.07;9.00;;;9.20;99.90;;;;;;4985194;28;20043;-62
2022/03/01 06:17:46;;;;;;;8.98;8.05;;;9.20;99.90;;;;;;4970815;28;20546;-62
2022/03/01 06:20:13;;;;;;;9.02;7.97;;;9.10;99.90;;;;;;4971302;28;20387;-62
2022/03/01 06:22:40;;;;;;;8.90;8.00;;;9.10;99.90;;;;;;4964490;28;20047;-62
2022/03/01 06:25:08;;;;;;;8.35;7.43;;;9.10;99.90;;;;;;4953357;28;20194;-62
2022/03/01 06:27:36;;;;;;;9.75;8.75;;;9.10;99.90;;;;;;4957348;28;20561;-62
2022/03/01 06:30:06;;;;;;;8.77;7.65;;;9.10;99.90;;;;;;4958886;28;20042;-61
2022/03/01 06:32:33;;;;;;;8.32;7.03;;;9.10;99.90;;;;;;4955329;28;20496;-62
2022/03/01 06:35:00;;;;;;;31.73;10.80;;;9.00;99.90;;;;;;4964367;28;20055;-62
2022/03/01 06:37:40;;;;;;;8.38;7.57;;;9.00;99.90;;;;;;4960896;28;20047;-62
2022/03/01 06:40:07;;;;;;;8.45;7.38;;;9.10;99.90;;;;;;4955391;28;20142;-66
2022/03/01 06:42:34;;;;;;;90.72;15.23;;;9.00;99.90;;;;;;4967316;28;20047;-61
2022/03/01 06:45:02;;;;;;;10.30;7.93;;;9.00;99.90;;;;;;4957412;28;20138;-61
2022/03/01 06:47:29;;;;;;;56.33;13.50;;;9.00;99.90;;;;;;4964619;28;20089;-61
2022/03/01 06:49:56;;;;;;;8.90;8.00;;;9.10;99.90;;;;;;4973427;28;20137;-63
2022/03/01 06:52:23;;;;;;;24.58;19.98;;;9.10;99.90;;;;;;4965497;28;20490;-60
2022/03/01 06:54:50;;;;;;;107.38;86.05;;;9.10;99.90;;;;;;4966036;28;20470;-60
2022/03/01 06:57:18;;;;;;;61.50;49.80;;;9.10;99.90;;;;;;4984022;28;20043;-62
2022/03/01 06:59:45;;;;;;;13.50;10.98;;;9.10;99.90;;;;;;4966834;28;20479;-68
2022/03/01 07:02:12;;;;;;;10.15;8.85;;;9.10;99.90;;;;;;4960186;28;20039;-68
2022/03/01 07:04:40;;;;;;;10.77;8.27;;;9.10;99.90;;;;;;4953097;28;20063;-68
2022/03/01 07:07:08;;;;;;;8.70;7.78;;;9.10;99.90;;;;;;4947963;28;20505;-68
2022/03/01 07:09:34;;;;;;;6.80;6.10;;;9.10;99.90;;;;;;4947769;29;20043;-66
2022/03/01 07:12:02;;;;;;;6.68;5.78;;;9.00;99.90;;;;;;4934197;29;20089;-69
2022/03/01 07:14:29;;;;;;;38.65;31.92;;;9.00;99.90;;;;;;4955298;28;20059;-69
2022/03/01 07:16:56;;;;;;;8.32;7.45;;;9.00;99.90;;;;;;4961709;28;20134;-67
2022/03/01 07:19:24;;;;;;;11.90;9.43;;;9.00;99.90;;;;;;4956385;28;20051;-71
2022/03/01 07:21:51;;;;;;;9.02;6.65;;;9.00;99.90;;;;;;4953460;28;20396;-66
2022/03/01 07:24:18;;;;;;;7.65;6.85;;;9.00;99.90;;;;;;4962704;28;20070;-68
2022/03/01 07:26:46;;;;;;;7.75;5.78;;;9.00;99.90;;;;;;4965653;28;20047;-67
2022/03/01 07:29:13;;;;;;;8.32;6.72;;;9.00;99.90;;;;;;4951528;28;20353;-67
2022/03/01 07:31:40;;;;;;;6.38;5.50;;;9.00;99.90;;;;;;4933658;29;20069;-67
2022/03/01 07:34:08;;;;;;;5.47;4.95;;;9.00;99.90;;;;;;4979967;28;20138;-71
2022/03/01 07:36:35;;;;;;;18.90;5.97;;;9.00;99.90;;;;;;4951362;28;20095;-67
2022/03/01 07:39:02;;;;;;;6.13;5.53;;;9.00;99.90;;;;;;4948651;28;20047;-68
2022/03/01 07:41:29;;;;;;;6.43;5.07;;;9.00;99.90;;;;;;4980478;28;20063;-67
2022/03/01 07:43:59;;;;;;;70.60;60.03;;;8.90;99.90;;;;;;4955063;28;20078;-67
2022/03/01 07:46:26;;;;;;;7.65;6.95;;;8.90;99.90;;;;;;4964500;28;20058;-69
2022/03/01 07:48:53;;;;;;;6.75;5.95;;;8.90;99.90;;;;;;4934958;29;20090;-70
2022/03/01 07:51:20;;;;;;;5.93;5.32;;;8.90;99.90;;;;;;4953228;29;20073;-64
2022/03/01 07:53:49;;;;;;;5.47;4.93;;;8.90;99.90;;;;;;4953802;28;20455;-66
2022/03/01 07:56:20;;;;;;;37.35;8.80;;;9.00;99.90;;;;;;4954133;28;20079;-67
2022/03/01 07:58:50;;;;;;;6.55;5.32;;;9.00;99.90;;;;;;4968962;28;20499;-66
2022/03/01 08:01:17;;;;;;;5.93;5.35;;;9.00;99.90;;;;;;4984015;28;20047;-67
2022/03/01 08:03:46;;;;;;;6.18;4.53;;;9.00;99.90;;;;;;4965331;28;20138;-68
2022/03/01 08:06:13;;;;;;;15.70;6.15;;;9.00;99.90;;;;;;4950611;29;20039;-65
2022/03/01 08:08:40;;;;;;;4.70;4.20;;;8.90;99.90;;;;;;4963976;28;20669;-66
2022/03/01 08:11:07;;;;;;;4.78;4.28;;;9.00;99.90;;;;;;4951632;29;20058;-64
2022/03/01 08:13:41;;;;;;;6.28;3.97;;;9.00;99.90;;;;;;4988128;28;20047;-62
2022/03/01 08:16:08;;;;;;;4.22;3.80;;;9.00;99.90;;;;;;4969254;28;20055;-61
2022/03/01 08:18:35;;;;;;;5.60;4.95;;;8.90;99.90;;;;;;4953847;28;20133;-63
2022/03/01 08:21:02;;;;;;;5.30;4.80;;;8.90;99.90;;;;;;4963448;28;20061;-62
2022/03/01 08:23:30;;;;;;;5.07;4.32;;;9.00;99.90;;;;;;4984166;28;20058;-63
2022/03/01 08:25:59;;;;;;;16.80;5.15;;;8.90;99.90;;;;;;4954615;29;20054;-65
2022/03/01 08:28:26;;;;;;;4.13;3.70;;;8.90;99.90;;;;;;4945348;28;20555;-69
2022/03/01 08:30:57;;;;;;;4.55;3.33;;;8.90;99.90;;;;;;4953711;28;20058;-68
2022/03/01 08:33:24;;;;;;;4.20;3.38;;;8.90;99.90;;;;;;4960679;28;20470;-68
2022/03/01 08:35:53;;;;;;;3.03;2.67;;;8.90;99.90;;;;;;4955780;28;20705;-68
2022/03/01 08:38:20;;;;;;;7.70;4.53;;;8.90;99.90;;;;;;4969439;28;20155;-68
2022/03/01 08:40:47;;;;;;;235.70;172.85;;;8.80;99.90;;;;;;4954535;29;20066;-66
2022/03/01 08:43:16;;;;;;;13.82;10.85;;;8.90;99.90;;;;;;4946572;28;20043;-69
2022/03/01 08:45:45;;;;;;;7.38;6.57;;;8.90;99.90;;;;;;4940306;28;20499;-68
2022/03/01 08:48:12;;;;;;;92.43;13.55;;;8.80;99.90;;;;;;4982776;28;20109;-70
2022/03/01 08:50:39;;;;;;;4.53;3.42;;;8.80;99.90;;;;;;4944259;28;20055;-69
2022/03/01 08:53:15;;;;;;;5.22;4.07;;;8.90;99.90;;;;;;4953451;29;20055;-68
2022/03/01 08:55:43;;;;;;;5.13;3.97;;;8.80;99.90;;;;;;4933809;29;20062;-68
2022/03/01 08:58:10;;;;;;;16.33;5.40;;;8.80;99.90;;;;;;4951085;28;20051;-67
2022/03/01 09:00:37;;;;;;;4.88;3.90;;;8.80;99.90;;;;;;4953647;28;20079;-66
2022/03/01 09:03:04;;;;;;;4.00;3.42;;;8.80;99.90;;;;;;4960954;28;20105;-66
2022/03/01 09:05:33;;;;;;;4.72;4.15;;;8.80;99.90;;;;;;4956642;28;20054;-64
2022/03/01 09:08:00;;;;;;;4.68;4.05;;;8.80;99.90;;;;;;4958388;28;20047;-64
2022/03/01 09:10:27;;;;;;;4.82;4.25;;;8.80;99.90;;;;;;4960917;28;20126;-63
2022/03/01 09:12:55;;;;;;;5.30;4.60;;;8.80;99.90;;;;;;4983241;28;20043;-64
2022/03/01 09:15:22;;;;;;;5.03;4.53;;;8.80;99.90;;;;;;4982664;28;20070;-65
2022/03/01 09:17:50;;;;;;;6.45;5.13;;;8.80;99.90;;;;;;4985040;28;20055;-63
2022/03/01 09:20:18;;;;;;;5.43;4.78;;;8.70;99.90;;;;;;4954406;28;20051;-63
2022/03/01 09:22:45;;;;;;;6.18;5.25;;;8.80;99.90;;;;;;4980119;28;20047;-63
2022/03/01 09:25:12;;;;;;;6.65;5.40;;;8.80;99.90;;;;;;4971704;28;20525;-64
2022/03/01 09:27:39;;;;;;;6.32;5.57;;;8.80;99.90;;;;;;4960338;28;20161;-63
2022/03/01 09:30:06;;;;;;;7.65;5.28;;;8.80;99.90;;;;;;4948485;28;20047;-64
2022/03/01 09:32:33;;;;;;;7.22;6.40;;;8.80;99.90;;;;;;4939916;29;20051;-64
2022/03/01 09:35:00;;;;;;;7.25;6.05;;;8.80;99.90;;;;;;4985358;28;20372;-64
2022/03/01 09:37:31;;;;;;;12.68;6.65;;;8.70;99.90;;;;;;4955760;28;20074;-64
2022/03/01 09:40:03;;;;;;;8.45;7.05;;;8.70;99.90;;;;;;4947933;28;20055;-65
2022/03/01 09:42:32;;;;;;;8.90;6.43;;;8.70;99.90;;;;;;4953588;29;20139;-64
2022/03/01 09:45:04;;;;;;;10.13;7.25;;;8.70;99.90;;;;;;4969442;28;20047;-65
2022/03/01 09:47:33;;;;;;;9.48;8.00;;;8.70;99.90;;;;;;4985635;28;20043;-66
2022/03/01 09:50:00;;;;;;;10.35;8.23;;;8.70;99.90;;;;;;4954613;28;20150;-64
2022/03/01 09:52:27;;;;;;;9.70;8.50;;;8.70;99.90;;;;;;4946728;28;20549;-74
2022/03/01 09:54:54;;;;;;;10.52;7.68;;;8.70;99.90;;;;;;4970653;28;20508;-67
2022/03/01 09:57:21;;;;;;;10.25;8.88;;;8.70;99.90;;;;;;4955639;28;20086;-68
2022/03/01 09:59:48;;;;;;;10.80;8.50;;;8.70;99.90;;;;;;4985318;28;20051;-65
2022/03/01 10:02:15;;;;;;;12.05;9.50;;;8.70;99.90;;;;;;4963966;28;20073;-59
2022/03/01 10:04:52;;;;;;;10.70;9.30;;;8.70;99.90;;;;;;4962389;28;20388;-67
2022/03/01 10:07:26;;;;;;;11.50;9.15;;;8.70;99.90;;;;;;4973815;28;20458;-69
2022/03/01 10:10:10;;;;;;;12.00;9.10;;;8.70;99.90;;;;;;4944771;28;20043;-67
2022/03/01 10:12:38;;;;;;;13.68;9.73;;;8.70;99.90;;;;;;4953885;28;20057;-67
2022/03/01 10:15:07;;;;;;;12.13;9.82;;;8.80;99.90;;;;;;4953593;29;20462;-65
2022/03/01 10:17:39;;;;;;;13.77;9.88;;;8.80;99.90;;;;;;4953945;29;20059;-68
2022/03/01 10:20:07;;;;;;;11.63;9.98;;;8.80;99.90;;;;;;4960249;28;20126;-64
2022/03/01 10:22:37;;;;;;;14.80;11.93;;;8.70;99.90;;;;;;4954927;28;20130;-65
2022/03/01 10:25:08;;;;;;;16.20;11.60;;;8.80;99.90;;;;;;4965043;28;20043;-66
2022/03/01 10:27:35;;;;;;;13.80;11.00;;;8.80;99.90;;;;;;4954591;28;20074;-67
2022/03/01 10:30:06;;;;;;;13.90;10.48;;;8.70;99.90;;;;;;4985186;28;20078;-68
2022/03/01 10:32:33;;;;;;;12.43;10.23;;;8.70;99.90;;;;;;4968092;28;20051;-67
2022/03/01 10:35:08;;;;;;;21.63;11.55;;;8.70;99.90;;;;;;4967980;28;20510;-67
2022/03/01 10:37:36;;;;;;;14.20;11.05;;;8.70;99.90;;;;;;4968551;28;20051;-66
2022/03/01 10:40:17;;;;;;;12.70;10.05;;;8.70;99.90;;;;;;4953098;28;20140;-66
2022/03/01 10:43:09;;;;;;;15.13;11.73;;;8.80;99.90;;;;;;4962407;28;20158;-67
2022/03/01 10:45:39;;;;;;;20.55;12.27;;;8.70;99.90;;;;;;4958460;28;20051;-70
2022/03/01 10:48:11;;;;;;;15.95;11.40;;;8.70;99.90;;;;;;4970275;28;20058;-66
2022/03/01 10:50:41;;;;;;;14.93;10.70;;;8.80;99.90;;;;;;4969539;28;20053;-66
2022/03/01 10:53:08;;;;;;;15.27;11.68;;;8.80;99.90;;;;;;4949480;29;20082;-66
2022/03/01 10:55:41;;;;;;;13.40;10.48;;;8.70;99.90;;;;;;4953870;28;20058;-66
2022/03/01 10:58:12;;;;;;;13.18;10.30;;;8.70;99.90;;;;;;4953844;28;20553;-66
2022/03/01 11:00:40;;;;;;;15.57;10.63;;;8.70;99.90;;;;;;4963250;28;20051;-66
2022/03/01 11:03:08;;;;;;;15.15;11.13;;;8.70;99.90;;;;;;4967694;28;20038;-68
2022/03/01 11:05:37;;;;;;;13.73;10.85;;;8.70;99.90;;;;;;4968154;28;20055;-65
2022/03/01 11:08:31;;;;;;;15.75;10.05;;;8.70;99.90;;;;;;4966884;28;20134;-67
2022/03/01 11:10:59;;;;;;;13.02;10.27;;;8.70;99.90;;;;;;4940425;29;20130;-66
2022/03/01 11:13:28;;;;;;;13.77;10.57;;;8.80;99.90;;;;;;4955482;28;20083;-68
2022/03/01 11:16:10;;;;;;;15.32;11.95;;;8.80;99.90;;;;;;4955156;28;20053;-67
2022/03/01 11:18:51;;;;;;;13.35;9.95;;;8.70;99.90;;;;;;4946212;28;20054;-68
2022/03/01 11:21:19;;;;;;;13.75;10.80;;;8.70;99.90;;;;;;4932620;29;20122;-74
2022/03/01 11:23:48;;;;;;;12.88;10.63;;;8.70;99.90;;;;;;4936908;29;20043;-71
2022/03/01 11:26:15;;;;;;;14.25;9.95;;;8.80;99.90;;;;;;4957041;28;20077;-69
2022/03/01 11:28:53;;;;;;;13.32;10.23;;;8.80;99.90;;;;;;4967771;28;20050;-72
2022/03/01 11:31:25;;;;;;;13.90;9.77;;;8.80;99.90;;;;;;4939378;29;20050;-66
2022/03/01 11:33:59;;;;;;;12.05;9.93;;;8.80;99.90;;;;;;4953474;28;20047;-71
2022/03/01 11:36:32;;;;;;;11.52;9.23;;;8.70;99.90;;;;;;4967259;28;20043;-69
2022/03/01 11:39:13;;;;;;;13.15;9.80;;;8.70;99.90;;;;;;4983954;28;20563;-69
2022/03/01 11:41:42;;;;;;;12.23;9.55;;;8.70;99.90;;;;;;4982465;28;20052;-66
2022/03/01 11:44:09;;;;;;;13.40;9.75;;;8.70;99.90;;;;;;4966697;28;20464;-69
2022/03/01 11:46:40;;;;;;;14.63;11.02;;;8.70;99.90;;;;;;4951768;29;20443;-69
2022/03/01 11:49:08;;;;;;;13.65;9.25;;;8.70;99.90;;;;;;4948209;29;20057;-66
2022/03/01 11:51:40;;;;;;;11.73;9.40;;;8.80;99.90;;;;;;4983768;28;20056;-72
2022/03/01 11:54:10;;;;;;;145.00;114.30;;;8.70;99.90;;;;;;4953050;28;20480;-65
2022/03/01 11:56:38;;;;;;;15.10;12.95;;;8.80;99.90;;;;;;4935865;29;20117;-69
2022/03/01 11:59:09;;;;;;;17.67;11.75;;;8.80;99.90;;;;;;4966492;28;20051;-67
2022/03/01 12:01:37;;;;;;;12.05;9.95;;;8.80;99.90;;;;;;4951333;29;20043;-66
2022/03/01 12:04:05;;;;;;;11.98;10.07;;;8.80;99.90;;;;;;4982316;28;20051;-66
2022/03/01 12:06:38;;;;;;;13.00;10.40;;;8.90;99.90;;;;;;4949420;29;20050;-67
2022/03/01 12:09:10;;;;;;;12.45;9.82;;;8.90;99.90;;;;;;4949681;29;20067;-66
2022/03/01 12:11:39;;;;;;;11.82;9.30;;;8.90;99.90;;;;;;4949520;29;20574;-65
2022/03/01 12:14:18;;;;;;;10.90;8.55;;;8.90;99.90;;;;;;4980969;28;20061;-64
2022/03/01 12:16:45;;;;;;;11.03;9.07;;;8.90;99.90;;;;;;4976557;28;20043;-61
2022/03/01 12:19:16;;;;;;;10.68;8.80;;;8.90;99.90;;;;;;4948975;28;20293;-64
2022/03/01 12:21:51;;;;;;;9.90;8.15;;;8.90;99.90;;;;;;4972830;28;20340;-65
2022/03/01 12:24:18;;;;;;;9.82;8.40;;;8.90;99.90;;;;;;4981368;28;20400;-66
2022/03/01 12:26:54;;;;;;;9.73;7.72;;;8.90;99.90;;;;;;4953210;28;20052;-67
2022/03/01 12:29:22;;;;;;;9.18;7.30;;;8.90;99.90;;;;;;4960606;28;20045;-66
2022/03/01 12:32:17;;;;;;;7.95;6.68;;;8.90;99.90;;;;;;4953151;28;20047;-67
2022/03/01 12:34:44;;;;;;;8.35;7.13;;;8.90;99.90;;;;;;4945119;29;20073;-66
2022/03/01 12:37:17;;;;;;;;;;;8.90;99.90;;;;;;4942288;29;20052;-67
2022/03/01 12:39:47;;;;;;;11.38;7.78;;;9.00;99.90;;;;;;4971024;28;19994;-68
2022/03/01 12:42:14;;;;;;;7.40;6.28;;;9.00;99.90;;;;;;4976067;28;20050;-68
2022/03/01 12:44:42;;;;;;;8.70;7.15;;;9.00;99.90;;;;;;4993994;28;20126;-67
2022/03/01 12:47:09;;;;;;;8.27;7.03;;;9.00;99.90;;;;;;4954956;29;20102;-62
2022/03/01 12:49:36;;;;;;;18.38;13.75;;;9.00;99.90;;;;;;4955817;28;20075;-65
2022/03/01 12:52:04;;;;;;;9.77;7.80;;;9.00;99.90;;;;;;4938290;28;20047;-66
2022/03/01 12:54:31;;;;;;;7.00;5.97;;;9.00;99.90;;;;;;4961228;28;20166;-65